CFG13DP EDDH-EHRD
Flight info
| Callsign | CFG13DP |
|---|---|
| Flight time | N/A |
| Altitude | 36000 |
| Route | WSN5G/33 WSN N125 BLUFA |
| Aircraft | A320/M-SDE3FGHIRWY/LB1 |
Departure
| Time | N/A |
|---|---|
| Airport | Hamburg Helmut Schmidt Airport (EDDH) |
Arrival
| Time | 2026-05-06 15:57 |
|---|---|
| Airport | Rotterdam The Hague Airport (EHRD) |
| Time | Latitude | Longitude | Altitude | Speed | Heading |
|---|---|---|---|---|---|
| 2026-05-06 15:39 | 52.30639 | 5.43172 | 6383 ft | 283 kts | 232° |
| 2026-05-06 15:39 | 52.29458 | 5.40634 | 6301 ft | 283 kts | 233° |
| 2026-05-06 15:40 | 52.28271 | 5.38080 | 6213 ft | 283 kts | 233° |
| 2026-05-06 15:40 | 52.27078 | 5.35517 | 6130 ft | 283 kts | 233° |
| 2026-05-06 15:40 | 52.25997 | 5.33190 | 6059 ft | 283 kts | 233° |
| 2026-05-06 15:40 | 52.24804 | 5.30630 | 5976 ft | 283 kts | 232° |
| 2026-05-06 15:41 | 52.23611 | 5.28078 | 5896 ft | 283 kts | 233° |
| 2026-05-06 15:41 | 52.22419 | 5.25529 | 5817 ft | 283 kts | 233° |
| 2026-05-06 15:41 | 52.21222 | 5.22980 | 5731 ft | 282 kts | 233° |
| 2026-05-06 15:41 | 52.20025 | 5.20437 | 5655 ft | 282 kts | 233° |
| 2026-05-06 15:42 | 52.18822 | 5.17879 | 5559 ft | 282 kts | 233° |
| 2026-05-06 15:42 | 52.18037 | 5.16206 | 5472 ft | 282 kts | 233° |
| 2026-05-06 15:42 | 52.16848 | 5.13670 | 5391 ft | 281 kts | 233° |
| 2026-05-06 15:42 | 52.15659 | 5.11139 | 5403 ft | 281 kts | 233° |
| 2026-05-06 15:43 | 52.14473 | 5.08615 | 5406 ft | 281 kts | 233° |
| 2026-05-06 15:43 | 52.13286 | 5.06085 | 5405 ft | 281 kts | 233° |
| 2026-05-06 15:43 | 52.12095 | 5.03556 | 5406 ft | 281 kts | 233° |
| 2026-05-06 15:43 | 52.10905 | 5.01037 | 5400 ft | 279 kts | 233° |
| 2026-05-06 15:44 | 52.09732 | 4.98561 | 5405 ft | 276 kts | 233° |
| 2026-05-06 15:44 | 52.08557 | 4.96083 | 5404 ft | 275 kts | 233° |
| 2026-05-06 15:44 | 52.07392 | 4.93624 | 5407 ft | 276 kts | 233° |
| 2026-05-06 15:44 | 52.06221 | 4.91156 | 5408 ft | 276 kts | 234° |
| 2026-05-06 15:45 | 52.05050 | 4.88689 | 5406 ft | 275 kts | 233° |
| 2026-05-06 15:45 | 52.03868 | 4.86203 | 5402 ft | 275 kts | 233° |
| 2026-05-06 15:45 | 52.02710 | 4.83763 | 5406 ft | 275 kts | 233° |
| 2026-05-06 15:45 | 52.01547 | 4.81316 | 5409 ft | 275 kts | 233° |
| 2026-05-06 15:46 | 52.00379 | 4.78861 | 5407 ft | 275 kts | 233° |
| 2026-05-06 15:46 | 51.99210 | 4.76407 | 5407 ft | 274 kts | 233° |
| 2026-05-06 15:46 | 51.98048 | 4.73973 | 5407 ft | 274 kts | 233° |
| 2026-05-06 15:46 | 51.96880 | 4.71527 | 5411 ft | 274 kts | 233° |
| 2026-05-06 15:47 | 51.95709 | 4.69078 | 5412 ft | 274 kts | 233° |
| 2026-05-06 15:47 | 51.94538 | 4.66629 | 5413 ft | 275 kts | 233° |
| 2026-05-06 15:47 | 51.93370 | 4.64190 | 5414 ft | 274 kts | 233° |
| 2026-05-06 15:47 | 51.92200 | 4.61747 | 5416 ft | 274 kts | 233° |
| 2026-05-06 15:48 | 51.91032 | 4.59309 | 5416 ft | 274 kts | 233° |
| 2026-05-06 15:48 | 51.89860 | 4.56871 | 5420 ft | 274 kts | 233° |
| 2026-05-06 15:48 | 51.88686 | 4.54435 | 5417 ft | 273 kts | 233° |
| 2026-05-06 15:48 | 51.87520 | 4.52016 | 5416 ft | 273 kts | 233° |
| 2026-05-06 15:49 | 51.86363 | 4.49620 | 5419 ft | 274 kts | 233° |
| 2026-05-06 15:49 | 51.85193 | 4.47197 | 5418 ft | 273 kts | 233° |
| 2026-05-06 15:49 | 51.84025 | 4.44770 | 5416 ft | 273 kts | 233° |
| 2026-05-06 15:49 | 51.82859 | 4.42353 | 5414 ft | 273 kts | 233° |
| 2026-05-06 15:50 | 51.81689 | 4.39931 | 5413 ft | 273 kts | 233° |
| 2026-05-06 15:50 | 51.80519 | 4.37516 | 5410 ft | 273 kts | 233° |
| 2026-05-06 15:50 | 51.79349 | 4.35108 | 5408 ft | 272 kts | 233° |
| 2026-05-06 15:50 | 51.78184 | 4.32708 | 5400 ft | 272 kts | 233° |
| 2026-05-06 15:51 | 51.77023 | 4.30314 | 5405 ft | 267 kts | 234° |
| 2026-05-06 15:51 | 51.76185 | 4.27837 | 5404 ft | 245 kts | 259° |
| 2026-05-06 15:51 | 51.76131 | 4.25150 | 5191 ft | 241 kts | 286° |
| 2026-05-06 15:51 | 51.76883 | 4.22830 | 4860 ft | 224 kts | 316° |
| 2026-05-06 15:52 | 51.78070 | 4.21423 | 4700 ft | 206 kts | 338° |
| 2026-05-06 15:52 | 51.79365 | 4.20488 | 4443 ft | 202 kts | 343° |
| 2026-05-06 15:52 | 51.80718 | 4.20033 | 4031 ft | 204 kts | 0° |
| 2026-05-06 15:52 | 51.82161 | 4.20205 | 3467 ft | 214 kts | 9° |
| 2026-05-06 15:53 | 51.83678 | 4.20503 | 2865 ft | 225 kts | 8° |
| 2026-05-06 15:53 | 51.85217 | 4.20888 | 2411 ft | 220 kts | 18° |
| 2026-05-06 15:53 | 51.86546 | 4.21977 | 2265 ft | 210 kts | 38° |
| 2026-05-06 15:53 | 51.87515 | 4.23662 | 2165 ft | 201 kts | 56° |
| 2026-05-06 15:54 | 51.88259 | 4.25511 | 2075 ft | 192 kts | 55° |
| 2026-05-06 15:54 | 51.88966 | 4.27268 | 2033 ft | 178 kts | 55° |
| 2026-05-06 15:54 | 51.89607 | 4.28857 | 1941 ft | 160 kts | 55° |
| 2026-05-06 15:54 | 51.90169 | 4.30256 | 1864 ft | 139 kts | 54° |
| 2026-05-06 15:55 | 51.90679 | 4.31519 | 1702 ft | 130 kts | 54° |
| 2026-05-06 15:55 | 51.91166 | 4.32731 | 1545 ft | 127 kts | 54° |
| 2026-05-06 15:55 | 51.91646 | 4.33930 | 1392 ft | 126 kts | 54° |
| 2026-05-06 15:55 | 51.92119 | 4.35113 | 1219 ft | 127 kts | 53° |
| 2026-05-06 15:56 | 51.92603 | 4.36319 | 1005 ft | 127 kts | 53° |
| 2026-05-06 15:56 | 51.93081 | 4.37509 | 823 ft | 126 kts | 55° |
| 2026-05-06 15:56 | 51.93552 | 4.38674 | 664 ft | 126 kts | 56° |
| 2026-05-06 15:56 | 51.94032 | 4.39875 | 464 ft | 126 kts | 57° |
| 2026-05-06 15:57 | 51.94510 | 4.41065 | 302 ft | 127 kts | 58° |
| 2026-05-06 15:57 | 51.94987 | 4.42255 | 117 ft | 125 kts | 59° |
| 2026-05-06 15:57 | 51.95452 | 4.43423 | -2 ft | 116 kts | 58° |
| 2026-05-06 15:57 | 51.95765 | 4.44217 | -5 ft | 42 kts | 56° |
| 2026-05-06 15:58 | 51.95889 | 4.44529 | -5 ft | 22 kts | 57° |
| 2026-05-06 15:58 | 51.95896 | 4.44680 | -5 ft | 11 kts | 131° |
| 2026-05-06 15:58 | 51.95829 | 4.44760 | -5 ft | 11 kts | 153° |
| 2026-05-06 15:58 | 51.95769 | 4.44712 | -5 ft | 10 kts | 235° |
| 2026-05-06 15:59 | 51.95720 | 4.44595 | -5 ft | 15 kts | 237° |
| 2026-05-06 15:59 | 51.95646 | 4.44408 | -5 ft | 23 kts | 237° |
| 2026-05-06 15:59 | 51.95563 | 4.44202 | -5 ft | 22 kts | 237° |
| 2026-05-06 15:59 | 51.95484 | 4.44003 | -5 ft | 20 kts | 235° |
| 2026-05-06 16:00 | 51.95409 | 4.43818 | -5 ft | 19 kts | 238° |
| 2026-05-06 16:00 | 51.95340 | 4.43640 | -5 ft | 18 kts | 237° |
| 2026-05-06 16:00 | 51.95277 | 4.43513 | -5 ft | 11 kts | 197° |
| 2026-05-06 16:00 | 51.95209 | 4.43547 | -5 ft | 11 kts | 149° |
| 2026-05-06 16:01 | 51.95133 | 4.43624 | -6 ft | 11 kts | 160° |
| 2026-05-06 16:01 | 51.95083 | 4.43559 | -6 ft | 9 kts | 236° |
| 2026-05-06 16:01 | 51.95049 | 4.43474 | -6 ft | 9 kts | 236° |
| 2026-05-06 16:01 | 51.95034 | 4.43418 | -6 ft | 3 kts | 274° |
| 2026-05-06 16:02 | 51.95045 | 4.43398 | -6 ft | 2 kts | 313° |
| 2026-05-06 16:02 | 51.95053 | 4.43387 | -6 ft | 1 kts | 321° |
| 2026-05-06 16:02 | 51.95060 | 4.43379 | -6 ft | 2 kts | 324° |
| 2026-05-06 16:02 | 51.95068 | 4.43369 | -6 ft | 0 kts | 325° |